sensor_id;sensor_type;location;lat;lon;timestamp;P1;durP1;ratioP1;P2;durP2;ratioP2
5742;SDS011;2896;53.500;10.020;2022-10-18T00:00:01;25.33;;;15.30;;
5742;SDS011;2896;53.500;10.020;2022-10-18T00:02:30;27.93;;;15.63;;
5742;SDS011;2896;53.500;10.020;2022-10-18T00:04:56;27.30;;;15.17;;
5742;SDS011;2896;53.500;10.020;2022-10-18T00:07:23;33.47;;;16.90;;
5742;SDS011;2896;53.500;10.020;2022-10-18T00:09:50;29.50;;;16.40;;
5742;SDS011;2896;53.500;10.020;2022-10-18T00:12:16;24.37;;;16.43;;
5742;SDS011;2896;53.500;10.020;2022-10-18T00:14:46;23.93;;;16.03;;
5742;SDS011;2896;53.500;10.020;2022-10-18T00:17:13;23.57;;;16.17;;
5742;SDS011;2896;53.500;10.020;2022-10-18T00:19:40;23.07;;;15.33;;
5742;SDS011;2896;53.500;10.020;2022-10-18T00:22:06;17.40;;;15.07;;
5742;SDS011;2896;53.500;10.020;2022-10-18T00:24:33;20.43;;;15.53;;
5742;SDS011;2896;53.500;10.020;2022-10-18T00:27:00;19.70;;;14.00;;
5742;SDS011;2896;53.500;10.020;2022-10-18T00:29:27;16.20;;;12.40;;
5742;SDS011;2896;53.500;10.020;2022-10-18T00:31:55;18.10;;;13.00;;
5742;SDS011;2896;53.500;10.020;2022-10-18T00:34:21;25.07;;;17.70;;
5742;SDS011;2896;53.500;10.020;2022-10-18T00:36:48;22.00;;;15.10;;
5742;SDS011;2896;53.500;10.020;2022-10-18T00:39:17;17.90;;;14.33;;
5742;SDS011;2896;53.500;10.020;2022-10-18T00:41:46;22.83;;;15.77;;
5742;SDS011;2896;53.500;10.020;2022-10-18T00:47:19;29.50;;;15.93;;
5742;SDS011;2896;53.500;10.020;2022-10-18T00:49:47;23.50;;;14.47;;
5742;SDS011;2896;53.500;10.020;2022-10-18T00:52:18;34.20;;;18.87;;
5742;SDS011;2896;53.500;10.020;2022-10-18T00:54:49;36.03;;;20.10;;
5742;SDS011;2896;53.500;10.020;2022-10-18T00:57:17;20.80;;;16.17;;
5742;SDS011;2896;53.500;10.020;2022-10-18T00:59:44;30.10;;;18.57;;
5742;SDS011;2896;53.500;10.020;2022-10-18T01:02:12;38.10;;;19.83;;
5742;SDS011;2896;53.500;10.020;2022-10-18T01:04:44;37.77;;;19.27;;
5742;SDS011;2896;53.500;10.020;2022-10-18T01:07:13;28.93;;;19.20;;
5742;SDS011;2896;53.500;10.020;2022-10-18T01:09:50;47.70;;;22.40;;
5742;SDS011;2896;53.500;10.020;2022-10-18T01:12:38;39.67;;;22.27;;
5742;SDS011;2896;53.500;10.020;2022-10-18T01:15:14;29.57;;;19.80;;
5742;SDS011;2896;53.500;10.020;2022-10-18T01:17:48;31.13;;;20.40;;
5742;SDS011;2896;53.500;10.020;2022-10-18T01:23:32;30.03;;;20.13;;
5742;SDS011;2896;53.500;10.020;2022-10-18T01:26:13;30.20;;;17.73;;
5742;SDS011;2896;53.500;10.020;2022-10-18T01:28:51;26.43;;;16.40;;
5742;SDS011;2896;53.500;10.020;2022-10-18T01:31:26;35.63;;;22.90;;
5742;SDS011;2896;53.500;10.020;2022-10-18T01:33:58;35.73;;;20.40;;
5742;SDS011;2896;53.500;10.020;2022-10-18T01:36:29;27.87;;;18.27;;
5742;SDS011;2896;53.500;10.020;2022-10-18T01:38:58;40.73;;;24.00;;
5742;SDS011;2896;53.500;10.020;2022-10-18T01:41:27;34.80;;;19.90;;
5742;SDS011;2896;53.500;10.020;2022-10-18T01:43:55;47.57;;;27.23;;
5742;SDS011;2896;53.500;10.020;2022-10-18T01:46:25;37.57;;;24.23;;
5742;SDS011;2896;53.500;10.020;2022-10-18T01:48:54;54.53;;;27.63;;
5742;SDS011;2896;53.500;10.020;2022-10-18T01:51:22;30.37;;;20.03;;
5742;SDS011;2896;53.500;10.020;2022-10-18T01:53:51;37.50;;;23.37;;
5742;SDS011;2896;53.500;10.020;2022-10-18T01:56:29;81.60;;;28.60;;
5742;SDS011;2896;53.500;10.020;2022-10-18T01:59:13;44.97;;;26.60;;
5742;SDS011;2896;53.500;10.020;2022-10-18T02:01:52;41.20;;;24.70;;
5742;SDS011;2896;53.500;10.020;2022-10-18T02:04:25;57.40;;;26.30;;
5742;SDS011;2896;53.500;10.020;2022-10-18T02:06:58;49.87;;;26.37;;
5742;SDS011;2896;53.500;10.020;2022-10-18T02:09:32;39.57;;;22.63;;
5742;SDS011;2896;53.500;10.020;2022-10-18T02:12:04;47.27;;;21.90;;
5742;SDS011;2896;53.500;10.020;2022-10-18T02:14:33;42.63;;;24.83;;
5742;SDS011;2896;53.500;10.020;2022-10-18T02:17:04;41.23;;;22.00;;
5742;SDS011;2896;53.500;10.020;2022-10-18T02:19:33;44.00;;;22.90;;
5742;SDS011;2896;53.500;10.020;2022-10-18T02:22:03;56.10;;;22.97;;
5742;SDS011;2896;53.500;10.020;2022-10-18T02:24:32;54.50;;;23.53;;
5742;SDS011;2896;53.500;10.020;2022-10-18T02:27:01;49.80;;;24.03;;
5742;SDS011;2896;53.500;10.020;2022-10-18T02:29:29;39.07;;;22.03;;
5742;SDS011;2896;53.500;10.020;2022-10-18T02:31:58;25.53;;;16.40;;
5742;SDS011;2896;53.500;10.020;2022-10-18T02:34:31;30.60;;;17.80;;
5742;SDS011;2896;53.500;10.020;2022-10-18T02:37:03;37.00;;;21.63;;
5742;SDS011;2896;53.500;10.020;2022-10-18T02:39:31;41.47;;;23.23;;
5742;SDS011;2896;53.500;10.020;2022-10-18T02:42:00;39.00;;;21.97;;
5742;SDS011;2896;53.500;10.020;2022-10-18T02:44:30;36.07;;;21.03;;
5742;SDS011;2896;53.500;10.020;2022-10-18T02:46:57;58.13;;;24.27;;
5742;SDS011;2896;53.500;10.020;2022-10-18T02:49:24;44.33;;;23.60;;
5742;SDS011;2896;53.500;10.020;2022-10-18T02:51:52;53.23;;;26.57;;
5742;SDS011;2896;53.500;10.020;2022-10-18T02:54:19;40.40;;;23.77;;
5742;SDS011;2896;53.500;10.020;2022-10-18T02:56:46;52.93;;;26.40;;
5742;SDS011;2896;53.500;10.020;2022-10-18T02:59:12;48.57;;;25.07;;
5742;SDS011;2896;53.500;10.020;2022-10-18T03:01:39;45.60;;;24.67;;
5742;SDS011;2896;53.500;10.020;2022-10-18T03:04:06;69.30;;;27.20;;
5742;SDS011;2896;53.500;10.020;2022-10-18T03:06:33;58.50;;;26.40;;
5742;SDS011;2896;53.500;10.020;2022-10-18T03:09:02;64.70;;;27.53;;
5742;SDS011;2896;53.500;10.020;2022-10-18T03:11:29;38.70;;;24.40;;
5742;SDS011;2896;53.500;10.020;2022-10-18T03:13:56;54.33;;;25.37;;
5742;SDS011;2896;53.500;10.020;2022-10-18T03:16:22;51.87;;;26.70;;
5742;SDS011;2896;53.500;10.020;2022-10-18T03:18:49;57.10;;;28.43;;
5742;SDS011;2896;53.500;10.020;2022-10-18T03:21:16;48.13;;;27.63;;
5742;SDS011;2896;53.500;10.020;2022-10-18T03:23:42;53.23;;;26.30;;
5742;SDS011;2896;53.500;10.020;2022-10-18T03:26:10;54.20;;;27.43;;
5742;SDS011;2896;53.500;10.020;2022-10-18T03:28:37;55.80;;;28.67;;
5742;SDS011;2896;53.500;10.020;2022-10-18T03:31:04;60.50;;;30.23;;
5742;SDS011;2896;53.500;10.020;2022-10-18T03:33:31;45.17;;;27.90;;
5742;SDS011;2896;53.500;10.020;2022-10-18T03:35:58;49.03;;;25.10;;
5742;SDS011;2896;53.500;10.020;2022-10-18T03:38:25;43.00;;;25.27;;
5742;SDS011;2896;53.500;10.020;2022-10-18T03:40:52;44.53;;;24.73;;
5742;SDS011;2896;53.500;10.020;2022-10-18T03:43:20;56.17;;;29.00;;
5742;SDS011;2896;53.500;10.020;2022-10-18T03:45:47;55.57;;;27.13;;
5742;SDS011;2896;53.500;10.020;2022-10-18T03:48:13;48.80;;;25.23;;
5742;SDS011;2896;53.500;10.020;2022-10-18T03:50:40;50.30;;;24.00;;
5742;SDS011;2896;53.500;10.020;2022-10-18T03:53:07;34.47;;;21.27;;
5742;SDS011;2896;53.500;10.020;2022-10-18T03:55:35;40.70;;;23.23;;
5742;SDS011;2896;53.500;10.020;2022-10-18T03:58:02;48.33;;;26.90;;
5742;SDS011;2896;53.500;10.020;2022-10-18T04:00:31;54.47;;;28.87;;
5742;SDS011;2896;53.500;10.020;2022-10-18T04:02:57;70.97;;;30.60;;
5742;SDS011;2896;53.500;10.020;2022-10-18T04:05:24;42.50;;;25.10;;
5742;SDS011;2896;53.500;10.020;2022-10-18T04:07:52;37.90;;;24.10;;
5742;SDS011;2896;53.500;10.020;2022-10-18T04:10:19;35.23;;;21.77;;
5742;SDS011;2896;53.500;10.020;2022-10-18T04:12:45;35.23;;;24.10;;
5742;SDS011;2896;53.500;10.020;2022-10-18T04:15:12;48.00;;;27.17;;
5742;SDS011;2896;53.500;10.020;2022-10-18T04:17:40;42.27;;;23.50;;
5742;SDS011;2896;53.500;10.020;2022-10-18T04:20:07;36.50;;;23.07;;
5742;SDS011;2896;53.500;10.020;2022-10-18T04:22:34;64.30;;;30.40;;
5742;SDS011;2896;53.500;10.020;2022-10-18T04:25:01;47.87;;;26.37;;
5742;SDS011;2896;53.500;10.020;2022-10-18T04:27:27;43.53;;;26.57;;
5742;SDS011;2896;53.500;10.020;2022-10-18T04:29:54;52.33;;;28.83;;
5742;SDS011;2896;53.500;10.020;2022-10-18T04:32:21;42.67;;;24.07;;
5742;SDS011;2896;53.500;10.020;2022-10-18T04:34:49;43.40;;;25.05;;
5742;SDS011;2896;53.500;10.020;2022-10-18T04:37:15;37.73;;;23.50;;
5742;SDS011;2896;53.500;10.020;2022-10-18T04:39:42;53.67;;;26.83;;
5742;SDS011;2896;53.500;10.020;2022-10-18T04:42:12;43.20;;;23.80;;
5742;SDS011;2896;53.500;10.020;2022-10-18T04:44:39;39.57;;;22.40;;
5742;SDS011;2896;53.500;10.020;2022-10-18T04:47:06;43.97;;;24.20;;
5742;SDS011;2896;53.500;10.020;2022-10-18T04:49:32;63.47;;;26.97;;
5742;SDS011;2896;53.500;10.020;2022-10-18T04:52:00;55.50;;;25.43;;
5742;SDS011;2896;53.500;10.020;2022-10-18T04:54:27;49.00;;;24.50;;
5742;SDS011;2896;53.500;10.020;2022-10-18T04:56:54;34.80;;;19.77;;
5742;SDS011;2896;53.500;10.020;2022-10-18T04:59:20;46.97;;;25.87;;
5742;SDS011;2896;53.500;10.020;2022-10-18T05:01:47;48.40;;;25.50;;
5742;SDS011;2896;53.500;10.020;2022-10-18T05:04:14;64.53;;;28.30;;
5742;SDS011;2896;53.500;10.020;2022-10-18T05:06:40;52.37;;;27.00;;
5742;SDS011;2896;53.500;10.020;2022-10-18T05:09:08;62.83;;;27.47;;
5742;SDS011;2896;53.500;10.020;2022-10-18T05:11:35;67.30;;;31.00;;
5742;SDS011;2896;53.500;10.020;2022-10-18T05:14:01;62.70;;;30.10;;
5742;SDS011;2896;53.500;10.020;2022-10-18T05:16:28;86.87;;;32.53;;
5742;SDS011;2896;53.500;10.020;2022-10-18T05:18:56;58.27;;;28.77;;
5742;SDS011;2896;53.500;10.020;2022-10-18T05:21:23;75.23;;;30.43;;
5742;SDS011;2896;53.500;10.020;2022-10-18T05:23:49;59.30;;;27.20;;
5742;SDS011;2896;53.500;10.020;2022-10-18T05:26:21;52.87;;;26.03;;
5742;SDS011;2896;53.500;10.020;2022-10-18T05:28:47;55.70;;;25.63;;
5742;SDS011;2896;53.500;10.020;2022-10-18T05:31:15;37.30;;;20.80;;
5742;SDS011;2896;53.500;10.020;2022-10-18T05:33:42;48.33;;;25.40;;
5742;SDS011;2896;53.500;10.020;2022-10-18T05:36:09;71.20;;;31.67;;
5742;SDS011;2896;53.500;10.020;2022-10-18T05:38:37;68.70;;;29.27;;
5742;SDS011;2896;53.500;10.020;2022-10-18T05:41:05;55.83;;;26.73;;
5742;SDS011;2896;53.500;10.020;2022-10-18T05:43:33;74.70;;;31.17;;
5742;SDS011;2896;53.500;10.020;2022-10-18T05:46:00;52.73;;;27.30;;
5742;SDS011;2896;53.500;10.020;2022-10-18T05:48:28;82.40;;;31.67;;
5742;SDS011;2896;53.500;10.020;2022-10-18T05:50:56;67.03;;;28.87;;
5742;SDS011;2896;53.500;10.020;2022-10-18T05:53:24;61.40;;;29.00;;
5742;SDS011;2896;53.500;10.020;2022-10-18T05:55:50;56.63;;;26.80;;
5742;SDS011;2896;53.500;10.020;2022-10-18T05:58:17;74.23;;;31.90;;
5742;SDS011;2896;53.500;10.020;2022-10-18T06:00:45;66.20;;;28.00;;
5742;SDS011;2896;53.500;10.020;2022-10-18T06:03:12;59.33;;;28.30;;
5742;SDS011;2896;53.500;10.020;2022-10-18T06:05:38;65.27;;;29.00;;
5742;SDS011;2896;53.500;10.020;2022-10-18T06:08:05;64.10;;;30.23;;
5742;SDS011;2896;53.500;10.020;2022-10-18T06:10:31;56.50;;;26.90;;
5742;SDS011;2896;53.500;10.020;2022-10-18T06:12:58;61.07;;;26.07;;
5742;SDS011;2896;53.500;10.020;2022-10-18T06:15:25;61.87;;;24.33;;
5742;SDS011;2896;53.500;10.020;2022-10-18T06:17:56;55.70;;;24.80;;
5742;SDS011;2896;53.500;10.020;2022-10-18T06:20:23;65.60;;;27.77;;
5742;SDS011;2896;53.500;10.020;2022-10-18T06:22:50;55.83;;;24.10;;
5742;SDS011;2896;53.500;10.020;2022-10-18T06:25:17;63.77;;;26.67;;
5742;SDS011;2896;53.500;10.020;2022-10-18T06:27:44;53.77;;;25.00;;
5742;SDS011;2896;53.500;10.020;2022-10-18T06:30:10;73.27;;;28.77;;
5742;SDS011;2896;53.500;10.020;2022-10-18T06:32:37;48.37;;;24.00;;
5742;SDS011;2896;53.500;10.020;2022-10-18T06:35:05;71.30;;;25.30;;
5742;SDS011;2896;53.500;10.020;2022-10-18T06:37:33;84.00;;;27.23;;
5742;SDS011;2896;53.500;10.020;2022-10-18T06:40:00;51.63;;;25.77;;
5742;SDS011;2896;53.500;10.020;2022-10-18T06:42:27;57.10;;;24.00;;
5742;SDS011;2896;53.500;10.020;2022-10-18T06:44:55;65.40;;;28.37;;
5742;SDS011;2896;53.500;10.020;2022-10-18T06:47:22;71.43;;;28.10;;
5742;SDS011;2896;53.500;10.020;2022-10-18T06:49:48;55.90;;;27.37;;
5742;SDS011;2896;53.500;10.020;2022-10-18T06:52:19;58.77;;;26.77;;
5742;SDS011;2896;53.500;10.020;2022-10-18T06:54:49;63.23;;;27.10;;
5742;SDS011;2896;53.500;10.020;2022-10-18T06:57:16;67.17;;;26.87;;
5742;SDS011;2896;53.500;10.020;2022-10-18T06:59:43;61.60;;;26.90;;
5742;SDS011;2896;53.500;10.020;2022-10-18T07:02:10;64.07;;;26.57;;
5742;SDS011;2896;53.500;10.020;2022-10-18T07:04:40;57.80;;;24.43;;
5742;SDS011;2896;53.500;10.020;2022-10-18T07:07:07;65.47;;;27.90;;
5742;SDS011;2896;53.500;10.020;2022-10-18T07:09:35;73.07;;;27.70;;
5742;SDS011;2896;53.500;10.020;2022-10-18T07:12:01;68.33;;;26.43;;
5742;SDS011;2896;53.500;10.020;2022-10-18T07:14:29;62.40;;;23.97;;
5742;SDS011;2896;53.500;10.020;2022-10-18T07:16:57;60.50;;;24.80;;
5742;SDS011;2896;53.500;10.020;2022-10-18T07:19:24;53.17;;;22.90;;
5742;SDS011;2896;53.500;10.020;2022-10-18T07:21:51;58.47;;;24.13;;
5742;SDS011;2896;53.500;10.020;2022-10-18T07:24:17;60.20;;;24.50;;
5742;SDS011;2896;53.500;10.020;2022-10-18T07:26:48;53.13;;;24.40;;
5742;SDS011;2896;53.500;10.020;2022-10-18T07:29:15;55.10;;;24.80;;
5742;SDS011;2896;53.500;10.020;2022-10-18T07:31:41;61.67;;;26.27;;
5742;SDS011;2896;53.500;10.020;2022-10-18T07:34:10;58.97;;;25.70;;
5742;SDS011;2896;53.500;10.020;2022-10-18T07:36:38;51.47;;;24.13;;
5742;SDS011;2896;53.500;10.020;2022-10-18T07:39:05;56.53;;;23.20;;
5742;SDS011;2896;53.500;10.020;2022-10-18T07:41:32;54.60;;;23.07;;
5742;SDS011;2896;53.500;10.020;2022-10-18T07:44:00;58.80;;;21.73;;
5742;SDS011;2896;53.500;10.020;2022-10-18T07:46:27;52.80;;;21.73;;
5742;SDS011;2896;53.500;10.020;2022-10-18T07:48:54;53.13;;;23.53;;
5742;SDS011;2896;53.500;10.020;2022-10-18T07:51:22;52.60;;;22.40;;
5742;SDS011;2896;53.500;10.020;2022-10-18T07:53:49;38.83;;;20.80;;
5742;SDS011;2896;53.500;10.020;2022-10-18T07:56:16;46.93;;;22.27;;
5742;SDS011;2896;53.500;10.020;2022-10-18T07:58:45;39.77;;;21.60;;
5742;SDS011;2896;53.500;10.020;2022-10-18T08:01:16;44.73;;;20.60;;
5742;SDS011;2896;53.500;10.020;2022-10-18T08:03:44;48.93;;;20.50;;
5742;SDS011;2896;53.500;10.020;2022-10-18T08:06:11;45.57;;;21.40;;
5742;SDS011;2896;53.500;10.020;2022-10-18T08:08:40;40.13;;;19.07;;
5742;SDS011;2896;53.500;10.020;2022-10-18T08:11:08;33.17;;;19.43;;
5742;SDS011;2896;53.500;10.020;2022-10-18T08:13:36;32.50;;;18.27;;
5742;SDS011;2896;53.500;10.020;2022-10-18T08:16:03;37.63;;;19.33;;
5742;SDS011;2896;53.500;10.020;2022-10-18T08:18:32;40.00;;;19.70;;
5742;SDS011;2896;53.500;10.020;2022-10-18T08:21:00;44.23;;;20.73;;
5742;SDS011;2896;53.500;10.020;2022-10-18T08:23:27;37.97;;;18.90;;
5742;SDS011;2896;53.500;10.020;2022-10-18T08:25:54;38.57;;;19.97;;
5742;SDS011;2896;53.500;10.020;2022-10-18T08:28:21;43.40;;;20.00;;
5742;SDS011;2896;53.500;10.020;2022-10-18T08:30:47;35.47;;;19.17;;
5742;SDS011;2896;53.500;10.020;2022-10-18T08:33:14;43.60;;;17.47;;
5742;SDS011;2896;53.500;10.020;2022-10-18T08:35:42;33.60;;;17.50;;
5742;SDS011;2896;53.500;10.020;2022-10-18T08:38:09;44.70;;;17.53;;
5742;SDS011;2896;53.500;10.020;2022-10-18T08:40:40;33.70;;;17.03;;
5742;SDS011;2896;53.500;10.020;2022-10-18T08:43:09;47.67;;;18.30;;
5742;SDS011;2896;53.500;10.020;2022-10-18T08:45:43;45.77;;;18.43;;
5742;SDS011;2896;53.500;10.020;2022-10-18T08:48:15;33.83;;;15.17;;
5742;SDS011;2896;53.500;10.020;2022-10-18T08:50:48;36.10;;;15.37;;
5742;SDS011;2896;53.500;10.020;2022-10-18T08:53:16;32.97;;;16.80;;
5742;SDS011;2896;53.500;10.020;2022-10-18T08:55:49;25.10;;;13.17;;
5742;SDS011;2896;53.500;10.020;2022-10-18T08:58:20;22.23;;;14.07;;
5742;SDS011;2896;53.500;10.020;2022-10-18T09:00:49;31.53;;;16.93;;
5742;SDS011;2896;53.500;10.020;2022-10-18T09:03:25;31.70;;;15.90;;
5742;SDS011;2896;53.500;10.020;2022-10-18T09:06:10;41.77;;;16.37;;
5742;SDS011;2896;53.500;10.020;2022-10-18T09:08:46;27.13;;;15.17;;
5742;SDS011;2896;53.500;10.020;2022-10-18T09:11:23;29.97;;;13.77;;
5742;SDS011;2896;53.500;10.020;2022-10-18T09:16:53;26.50;;;13.30;;
5742;SDS011;2896;53.500;10.020;2022-10-18T09:19:29;32.27;;;14.27;;
5742;SDS011;2896;53.500;10.020;2022-10-18T09:22:12;24.50;;;13.50;;
5742;SDS011;2896;53.500;10.020;2022-10-18T09:24:43;29.67;;;13.67;;
5742;SDS011;2896;53.500;10.020;2022-10-18T09:27:14;21.17;;;13.10;;
5742;SDS011;2896;53.500;10.020;2022-10-18T09:29:46;35.23;;;13.40;;
5742;SDS011;2896;53.500;10.020;2022-10-18T09:32:25;25.90;;;13.63;;
5742;SDS011;2896;53.500;10.020;2022-10-18T09:34:59;24.20;;;13.00;;
5742;SDS011;2896;53.500;10.020;2022-10-18T09:37:31;23.00;;;13.73;;
5742;SDS011;2896;53.500;10.020;2022-10-18T09:40:02;26.23;;;13.50;;
5742;SDS011;2896;53.500;10.020;2022-10-18T09:42:38;27.47;;;13.80;;
5742;SDS011;2896;53.500;10.020;2022-10-18T09:45:19;23.30;;;12.87;;
5742;SDS011;2896;53.500;10.020;2022-10-18T09:47:53;24.67;;;12.80;;
5742;SDS011;2896;53.500;10.020;2022-10-18T09:50:29;22.40;;;13.00;;
5742;SDS011;2896;53.500;10.020;2022-10-18T09:53:04;24.23;;;12.67;;
5742;SDS011;2896;53.500;10.020;2022-10-18T09:55:37;17.87;;;10.63;;
5742;SDS011;2896;53.500;10.020;2022-10-18T09:58:19;20.70;;;10.80;;
5742;SDS011;2896;53.500;10.020;2022-10-18T10:00:49;18.13;;;10.70;;
5742;SDS011;2896;53.500;10.020;2022-10-18T10:03:17;19.43;;;10.77;;
5742;SDS011;2896;53.500;10.020;2022-10-18T10:05:44;28.27;;;10.03;;
5742;SDS011;2896;53.500;10.020;2022-10-18T10:08:12;21.63;;;8.90;;
5742;SDS011;2896;53.500;10.020;2022-10-18T10:10:39;15.17;;;8.67;;
5742;SDS011;2896;53.500;10.020;2022-10-18T10:13:13;17.70;;;8.53;;
5742;SDS011;2896;53.500;10.020;2022-10-18T10:15:44;22.03;;;9.40;;
5742;SDS011;2896;53.500;10.020;2022-10-18T10:18:16;25.57;;;9.40;;
5742;SDS011;2896;53.500;10.020;2022-10-18T10:20:46;12.37;;;7.50;;
5742;SDS011;2896;53.500;10.020;2022-10-18T10:23:17;18.37;;;7.67;;
5742;SDS011;2896;53.500;10.020;2022-10-18T10:25:48;20.60;;;8.07;;
5742;SDS011;2896;53.500;10.020;2022-10-18T10:28:18;20.70;;;8.17;;
5742;SDS011;2896;53.500;10.020;2022-10-18T10:30:46;14.87;;;7.97;;
5742;SDS011;2896;53.500;10.020;2022-10-18T10:33:30;18.30;;;9.40;;
5742;SDS011;2896;53.500;10.020;2022-10-18T10:35:59;20.20;;;8.47;;
5742;SDS011;2896;53.500;10.020;2022-10-18T10:38:29;23.63;;;9.50;;
5742;SDS011;2896;53.500;10.020;2022-10-18T10:40:56;19.50;;;8.23;;
5742;SDS011;2896;53.500;10.020;2022-10-18T10:43:24;22.40;;;8.43;;
5742;SDS011;2896;53.500;10.020;2022-10-18T10:45:54;15.73;;;8.70;;
5742;SDS011;2896;53.500;10.020;2022-10-18T10:48:23;17.77;;;8.77;;
5742;SDS011;2896;53.500;10.020;2022-10-18T10:50:53;21.10;;;9.57;;
5742;SDS011;2896;53.500;10.020;2022-10-18T10:53:31;16.20;;;8.23;;
5742;SDS011;2896;53.500;10.020;2022-10-18T10:56:21;17.57;;;9.33;;
5742;SDS011;2896;53.500;10.020;2022-10-18T10:58:50;26.17;;;8.70;;
5742;SDS011;2896;53.500;10.020;2022-10-18T11:01:23;18.10;;;9.00;;
5742;SDS011;2896;53.500;10.020;2022-10-18T11:03:56;18.37;;;9.27;;
5742;SDS011;2896;53.500;10.020;2022-10-18T11:06:32;15.07;;;8.40;;
5742;SDS011;2896;53.500;10.020;2022-10-18T11:09:23;18.93;;;9.83;;
5742;SDS011;2896;53.500;10.020;2022-10-18T11:12:00;25.00;;;8.70;;
5742;SDS011;2896;53.500;10.020;2022-10-18T11:14:31;12.63;;;6.87;;
5742;SDS011;2896;53.500;10.020;2022-10-18T11:17:05;19.17;;;7.33;;
5742;SDS011;2896;53.500;10.020;2022-10-18T11:19:39;12.47;;;7.00;;
5742;SDS011;2896;53.500;10.020;2022-10-18T11:22:14;11.80;;;6.57;;
5742;SDS011;2896;53.500;10.020;2022-10-18T11:24:46;12.03;;;6.53;;
5742;SDS011;2896;53.500;10.020;2022-10-18T11:27:14;14.50;;;6.80;;
5742;SDS011;2896;53.500;10.020;2022-10-18T11:29:48;16.87;;;6.83;;
5742;SDS011;2896;53.500;10.020;2022-10-18T11:32:29;19.93;;;7.23;;
5742;SDS011;2896;53.500;10.020;2022-10-18T11:35:13;16.80;;;6.20;;
5742;SDS011;2896;53.500;10.020;2022-10-18T11:38:11;14.97;;;6.27;;
5742;SDS011;2896;53.500;10.020;2022-10-18T11:40:48;18.20;;;6.10;;
5742;SDS011;2896;53.500;10.020;2022-10-18T11:43:30;16.13;;;6.10;;
5742;SDS011;2896;53.500;10.020;2022-10-18T11:46:03;12.30;;;4.90;;
5742;SDS011;2896;53.500;10.020;2022-10-18T11:48:39;10.67;;;5.07;;
5742;SDS011;2896;53.500;10.020;2022-10-18T11:51:27;19.57;;;5.20;;
5742;SDS011;2896;53.500;10.020;2022-10-18T11:54:03;17.10;;;4.90;;
5742;SDS011;2896;53.500;10.020;2022-10-18T11:56:49;18.17;;;5.67;;
5742;SDS011;2896;53.500;10.020;2022-10-18T11:59:26;17.53;;;4.67;;
5742;SDS011;2896;53.500;10.020;2022-10-18T12:02:00;17.00;;;4.73;;
5742;SDS011;2896;53.500;10.020;2022-10-18T12:04:42;22.80;;;6.07;;
5742;SDS011;2896;53.500;10.020;2022-10-18T12:07:16;16.17;;;5.70;;
5742;SDS011;2896;53.500;10.020;2022-10-18T12:09:45;14.80;;;6.07;;
5742;SDS011;2896;53.500;10.020;2022-10-18T12:12:17;14.63;;;5.70;;
5742;SDS011;2896;53.500;10.020;2022-10-18T12:14:50;15.60;;;5.83;;
5742;SDS011;2896;53.500;10.020;2022-10-18T12:17:21;15.80;;;5.80;;
5742;SDS011;2896;53.500;10.020;2022-10-18T12:19:58;17.00;;;6.00;;
5742;SDS011;2896;53.500;10.020;2022-10-18T12:22:31;9.80;;;4.60;;
5742;SDS011;2896;53.500;10.020;2022-10-18T12:25:01;12.03;;;5.37;;
5742;SDS011;2896;53.500;10.020;2022-10-18T12:27:31;16.70;;;5.13;;
5742;SDS011;2896;53.500;10.020;2022-10-18T12:30:03;13.23;;;4.93;;
5742;SDS011;2896;53.500;10.020;2022-10-18T12:32:37;13.57;;;4.80;;
5742;SDS011;2896;53.500;10.020;2022-10-18T12:35:06;12.13;;;4.27;;
5742;SDS011;2896;53.500;10.020;2022-10-18T12:37:50;13.70;;;4.27;;
5742;SDS011;2896;53.500;10.020;2022-10-18T12:40:35;15.50;;;5.47;;
5742;SDS011;2896;53.500;10.020;2022-10-18T12:43:14;15.13;;;4.93;;
5742;SDS011;2896;53.500;10.020;2022-10-18T12:45:47;19.10;;;4.70;;
5742;SDS011;2896;53.500;10.020;2022-10-18T12:48:25;13.23;;;4.60;;
5742;SDS011;2896;53.500;10.020;2022-10-18T12:50:58;10.30;;;4.40;;
5742;SDS011;2896;53.500;10.020;2022-10-18T12:53:29;19.20;;;4.80;;
5742;SDS011;2896;53.500;10.020;2022-10-18T13:02:21;15.50;;;4.43;;
5742;SDS011;2896;53.500;10.020;2022-10-18T13:04:53;21.80;;;4.43;;
5742;SDS011;2896;53.500;10.020;2022-10-18T13:07:21;10.30;;;3.87;;
5742;SDS011;2896;53.500;10.020;2022-10-18T13:13:13;9.83;;;3.57;;
5742;SDS011;2896;53.500;10.020;2022-10-18T13:15:54;15.43;;;4.10;;
5742;SDS011;2896;53.500;10.020;2022-10-18T13:18:31;13.93;;;3.47;;
5742;SDS011;2896;53.500;10.020;2022-10-18T13:21:08;15.43;;;3.43;;
5742;SDS011;2896;53.500;10.020;2022-10-18T13:23:41;18.43;;;3.90;;
5742;SDS011;2896;53.500;10.020;2022-10-18T13:26:22;23.53;;;4.53;;
5742;SDS011;2896;53.500;10.020;2022-10-18T13:28:56;22.87;;;3.80;;
5742;SDS011;2896;53.500;10.020;2022-10-18T13:31:34;22.07;;;3.80;;
5742;SDS011;2896;53.500;10.020;2022-10-18T13:54:15;39.87;;;3.80;;
5742;SDS011;2896;53.500;10.020;2022-10-18T13:56:55;9.90;;;2.40;;
5742;SDS011;2896;53.500;10.020;2022-10-18T13:59:44;9.37;;;2.07;;
5742;SDS011;2896;53.500;10.020;2022-10-18T14:02:31;8.67;;;2.30;;
5742;SDS011;2896;53.500;10.020;2022-10-18T14:05:11;15.43;;;3.17;;
5742;SDS011;2896;53.500;10.020;2022-10-18T14:07:45;12.37;;;3.80;;
5742;SDS011;2896;53.500;10.020;2022-10-18T14:10:18;11.00;;;2.70;;
5742;SDS011;2896;53.500;10.020;2022-10-18T14:12:49;13.73;;;3.00;;
5742;SDS011;2896;53.500;10.020;2022-10-18T14:15:22;13.57;;;2.80;;
5742;SDS011;2896;53.500;10.020;2022-10-18T14:17:51;22.67;;;3.00;;
5742;SDS011;2896;53.500;10.020;2022-10-18T14:20:24;13.53;;;2.40;;
5742;SDS011;2896;53.500;10.020;2022-10-18T14:22:55;13.40;;;3.90;;
5742;SDS011;2896;53.500;10.020;2022-10-18T14:25:29;14.07;;;2.73;;
5742;SDS011;2896;53.500;10.020;2022-10-18T14:28:08;15.07;;;3.10;;
5742;SDS011;2896;53.500;10.020;2022-10-18T14:30:48;11.43;;;3.23;;
5742;SDS011;2896;53.500;10.020;2022-10-18T14:33:22;13.03;;;2.90;;
5742;SDS011;2896;53.500;10.020;2022-10-18T14:35:59;9.00;;;2.50;;
5742;SDS011;2896;53.500;10.020;2022-10-18T14:38:30;9.53;;;3.10;;
5742;SDS011;2896;53.500;10.020;2022-10-18T14:41:05;17.00;;;3.00;;
5742;SDS011;2896;53.500;10.020;2022-10-18T14:43:39;16.23;;;3.70;;
5742;SDS011;2896;53.500;10.020;2022-10-18T14:46:09;13.93;;;2.90;;
5742;SDS011;2896;53.500;10.020;2022-10-18T14:48:50;9.93;;;2.60;;
5742;SDS011;2896;53.500;10.020;2022-10-18T14:51:18;13.63;;;2.80;;
5742;SDS011;2896;53.500;10.020;2022-10-18T14:53:45;10.83;;;2.93;;
5742;SDS011;2896;53.500;10.020;2022-10-18T14:56:20;14.13;;;3.23;;
5742;SDS011;2896;53.500;10.020;2022-10-18T14:58:49;10.17;;;2.47;;
5742;SDS011;2896;53.500;10.020;2022-10-18T15:01:17;42.77;;;4.80;;
5742;SDS011;2896;53.500;10.020;2022-10-18T15:03:46;9.40;;;2.63;;
5742;SDS011;2896;53.500;10.020;2022-10-18T15:06:14;14.70;;;3.43;;
5742;SDS011;2896;53.500;10.020;2022-10-18T15:08:42;14.20;;;3.57;;
5742;SDS011;2896;53.500;10.020;2022-10-18T15:11:10;13.73;;;3.43;;
5742;SDS011;2896;53.500;10.020;2022-10-18T15:13:43;17.73;;;3.20;;
5742;SDS011;2896;53.500;10.020;2022-10-18T15:16:14;11.27;;;3.40;;
5742;SDS011;2896;53.500;10.020;2022-10-18T15:18:42;21.50;;;3.00;;
5742;SDS011;2896;53.500;10.020;2022-10-18T15:21:18;11.07;;;3.03;;
5742;SDS011;2896;53.500;10.020;2022-10-18T15:23:47;13.43;;;2.73;;
5742;SDS011;2896;53.500;10.020;2022-10-18T15:26:14;13.13;;;3.07;;
5742;SDS011;2896;53.500;10.020;2022-10-18T15:28:48;20.77;;;2.93;;
5742;SDS011;2896;53.500;10.020;2022-10-18T15:31:21;20.40;;;3.10;;
5742;SDS011;2896;53.500;10.020;2022-10-18T15:33:50;11.57;;;2.30;;
5742;SDS011;2896;53.500;10.020;2022-10-18T15:36:19;8.53;;;3.23;;